createdAt,value
2018-11-02T00:02:23.593Z,3.40
2018-11-02T00:04:52.184Z,3.00
2018-11-02T00:07:21.211Z,4.50
2018-11-02T00:09:50.199Z,3.50
2018-11-02T00:12:18.446Z,2.80
2018-11-02T00:14:46.494Z,3.40
2018-11-02T00:17:14.654Z,3.03
2018-11-02T00:19:43.031Z,5.63
2018-11-02T00:22:10.947Z,2.63
2018-11-02T00:24:39.653Z,2.30
2018-11-02T00:27:08.501Z,4.60
2018-11-02T00:29:36.723Z,3.97
2018-11-02T00:32:05.312Z,8.27
2018-11-02T00:34:33.892Z,3.40
2018-11-02T00:37:02.535Z,2.90
2018-11-02T00:39:31.480Z,4.53
2018-11-02T00:41:59.630Z,4.77
2018-11-02T00:44:28.339Z,5.13
2018-11-02T00:46:56.535Z,4.53
2018-11-02T00:49:24.563Z,4.13
2018-11-02T00:51:52.702Z,7.30
2018-11-02T00:54:21.263Z,4.30
2018-11-02T00:56:49.288Z,5.20
2018-11-02T00:59:17.797Z,4.97
2018-11-02T01:01:46.843Z,6.07
2018-11-02T01:04:15.229Z,6.70
2018-11-02T01:06:43.508Z,5.03
2018-11-02T01:09:11.998Z,4.20
2018-11-02T01:11:40.094Z,4.93
2018-11-02T01:14:08.489Z,5.10
2018-11-02T01:16:36.588Z,5.17
2018-11-02T01:19:04.871Z,5.10
2018-11-02T01:21:32.914Z,6.03
2018-11-02T01:24:01.078Z,5.50
2018-11-02T01:26:29.550Z,5.60
2018-11-02T01:28:57.553Z,5.50
2018-11-02T01:31:26.475Z,6.57
2018-11-02T01:33:55.288Z,4.70
2018-11-02T01:36:24.153Z,5.10
2018-11-02T01:38:53.250Z,6.07
2018-11-02T01:41:22.409Z,4.30
2018-11-02T01:43:50.599Z,4.40
2018-11-02T01:46:19.361Z,4.33
2018-11-02T01:48:47.376Z,4.37
2018-11-02T01:51:15.875Z,4.40
2018-11-02T01:53:45.934Z,4.60
2018-11-02T01:56:14.097Z,4.87
2018-11-02T01:58:42.277Z,4.50
2018-11-02T02:01:10.538Z,5.50
2018-11-02T02:03:39.109Z,7.80
2018-11-02T02:06:08.099Z,5.63
2018-11-02T02:08:36.078Z,6.23
2018-11-02T02:11:04.693Z,10.70
2018-11-02T02:13:32.910Z,7.63
2018-11-02T02:16:01.743Z,10.20
2018-11-02T02:18:30.379Z,8.97
2018-11-02T02:20:59.626Z,8.23
2018-11-02T02:23:27.550Z,6.00
2018-11-02T02:25:55.854Z,7.50
2018-11-02T02:28:24.117Z,7.97
2018-11-02T02:30:52.902Z,8.13
2018-11-02T02:33:21.936Z,5.53
2018-11-02T02:35:50.300Z,7.03
2018-11-02T02:38:18.302Z,6.43
2018-11-02T02:40:46.957Z,36.03
2018-11-02T02:43:15.932Z,5.80
2018-11-02T02:45:44.095Z,7.17
2018-11-02T02:48:12.916Z,10.33
2018-11-02T02:50:41.434Z,8.23
2018-11-02T02:53:09.450Z,7.87
2018-11-02T02:55:37.353Z,7.70
2018-11-02T02:58:05.292Z,7.57
2018-11-02T03:00:33.449Z,7.20
2018-11-02T03:03:01.630Z,5.80
2018-11-02T03:05:29.525Z,7.70
2018-11-02T03:07:58.282Z,7.27
2018-11-02T03:10:26.529Z,5.77
2018-11-02T03:12:54.634Z,5.17
2018-11-02T03:15:22.529Z,5.50
2018-11-02T03:17:51.411Z,6.20
2018-11-02T03:20:19.388Z,4.93
2018-11-02T03:22:48.194Z,5.63
2018-11-02T03:25:16.166Z,5.10
2018-11-02T03:27:44.635Z,6.70
2018-11-02T03:30:12.987Z,9.70
2018-11-02T03:32:41.378Z,26.20
2018-11-02T03:35:10.070Z,49.53
2018-11-02T03:37:39.173Z,6.60
2018-11-02T03:40:09.154Z,7.17
2018-11-02T03:42:37.462Z,7.27
2018-11-02T03:45:06.456Z,8.67
2018-11-02T03:47:35.548Z,8.97
2018-11-02T03:50:03.479Z,8.40
2018-11-02T03:52:31.465Z,8.37
2018-11-02T03:55:00.040Z,7.50
2018-11-02T03:57:28.202Z,6.97
2018-11-02T03:59:56.377Z,7.57
2018-11-02T04:02:24.550Z,6.27
2018-11-02T04:04:53.086Z,8.33
2018-11-02T04:07:22.218Z,7.47
2018-11-02T04:09:51.349Z,49.53
2018-11-02T04:12:19.489Z,26.23
2018-11-02T04:14:47.823Z,7.37
2018-11-02T04:17:16.246Z,8.07
2018-11-02T04:19:44.389Z,7.87
2018-11-02T04:22:12.549Z,9.47
2018-11-02T04:24:40.693Z,7.67
2018-11-02T04:27:09.774Z,8.53
2018-11-02T04:29:37.911Z,7.23
2018-11-02T04:32:06.093Z,5.93
2018-11-02T04:34:34.242Z,6.30
2018-11-02T04:37:02.926Z,6.43
2018-11-02T04:39:31.319Z,7.80
2018-11-02T04:41:59.242Z,6.40
2018-11-02T04:44:27.349Z,7.97
2018-11-02T04:46:56.488Z,7.83
2018-11-02T04:49:25.331Z,5.10
2018-11-02T04:51:53.265Z,8.10
2018-11-02T04:54:21.541Z,7.03
2018-11-02T04:56:50.481Z,6.00
2018-11-02T04:59:19.113Z,6.90
2018-11-02T05:01:47.331Z,6.57
2018-11-02T05:04:16.105Z,7.53
2018-11-02T05:06:44.582Z,6.77
2018-11-02T05:09:12.533Z,6.53
2018-11-02T05:11:41.168Z,6.20
2018-11-02T05:14:10.591Z,9.93
2018-11-02T05:16:38.770Z,7.10
2018-11-02T05:19:06.831Z,7.03
2018-11-02T05:21:34.781Z,5.93
2018-11-02T05:24:03.696Z,5.53
2018-11-02T05:26:32.812Z,5.03
2018-11-02T05:29:00.760Z,5.63
2018-11-02T05:31:29.413Z,7.40
2018-11-02T05:33:57.452Z,6.77
2018-11-02T05:36:25.585Z,4.97
2018-11-02T05:38:53.733Z,5.57
2018-11-02T05:41:22.311Z,6.77
2018-11-02T05:43:51.010Z,4.80
2018-11-02T05:46:19.122Z,6.77
2018-11-02T05:48:47.048Z,4.73
2018-11-02T05:51:14.950Z,4.27
2018-11-02T05:53:43.227Z,4.87
2018-11-02T05:56:11.436Z,7.57
2018-11-02T05:58:39.939Z,4.73
2018-11-02T06:01:08.344Z,4.13
2018-11-02T06:03:36.479Z,7.50
2018-11-02T06:06:05.337Z,5.70
2018-11-02T06:08:34.159Z,4.10
2018-11-02T06:11:03.073Z,5.67
2018-11-02T06:13:31.129Z,4.87
2018-11-02T06:15:59.016Z,5.77
2018-11-02T06:18:26.908Z,7.10
2018-11-02T06:20:54.817Z,5.63
2018-11-02T06:23:22.947Z,4.77
2018-11-02T06:25:50.852Z,6.10
2018-11-02T06:28:19.002Z,5.17
2018-11-02T06:30:47.844Z,4.17
2018-11-02T06:33:16.860Z,3.73
2018-11-02T06:35:45.329Z,4.13
2018-11-02T06:38:13.488Z,5.07
2018-11-02T06:40:41.393Z,6.80
2018-11-02T06:43:10.080Z,5.03
2018-11-02T06:45:38.202Z,4.63
2018-11-02T06:48:06.996Z,5.00
2018-11-02T06:50:35.176Z,5.80
2018-11-02T06:53:03.947Z,6.80
2018-11-02T06:55:32.795Z,6.53
2018-11-02T06:58:01.287Z,7.43
2018-11-02T07:00:29.973Z,6.47
2018-11-02T07:02:58.394Z,6.73
2018-11-02T07:05:27.722Z,8.37
2018-11-02T07:07:55.930Z,8.53
2018-11-02T07:10:23.940Z,11.03
2018-11-02T07:12:53.078Z,11.60
2018-11-02T07:15:21.705Z,7.93
2018-11-02T07:17:50.837Z,8.90
2018-11-02T07:20:18.758Z,7.77
2018-11-02T07:22:46.665Z,8.53
2018-11-02T07:25:15.471Z,8.97
2018-11-02T07:27:43.409Z,10.17
2018-11-02T07:30:11.769Z,8.37
2018-11-02T07:32:40.470Z,11.97
2018-11-02T07:35:09.532Z,10.53
2018-11-02T07:37:38.120Z,10.13
2018-11-02T07:40:07.643Z,9.33
2018-11-02T07:42:35.825Z,10.30
2018-11-02T07:45:04.503Z,10.77
2018-11-02T07:47:32.625Z,8.70
2018-11-02T07:50:01.170Z,11.53
2018-11-02T07:52:29.484Z,9.63
2018-11-02T07:54:57.361Z,9.13
2018-11-02T07:57:25.274Z,10.87
2018-11-02T07:59:53.433Z,11.37
2018-11-02T08:02:21.580Z,9.67
2018-11-02T08:04:50.537Z,9.47
2018-11-02T08:07:19.015Z,10.67
2018-11-02T08:09:47.337Z,10.00
2018-11-02T08:12:15.444Z,10.43
2018-11-02T08:14:44.023Z,9.93
2018-11-02T08:17:12.942Z,9.80
2018-11-02T08:19:41.731Z,10.30
2018-11-02T08:22:10.517Z,9.63
2018-11-02T08:24:39.173Z,10.27
2018-11-02T08:27:07.441Z,14.30
2018-11-02T08:29:35.833Z,11.40
2018-11-02T08:32:04.549Z,13.63
2018-11-02T08:34:38.624Z,13.63
2018-11-02T08:37:06.698Z,13.00
2018-11-02T08:39:35.788Z,12.73
2018-11-02T08:42:04.401Z,11.03
2018-11-02T08:44:32.546Z,11.03
2018-11-02T08:47:00.456Z,15.63
2018-11-02T08:49:28.602Z,11.77
2018-11-02T08:51:56.982Z,10.10
2018-11-02T08:54:24.868Z,9.77
2018-11-02T08:56:53.024Z,9.37
2018-11-02T08:59:21.086Z,7.90
2018-11-02T09:01:49.059Z,9.47
2018-11-02T09:04:17.317Z,8.90
2018-11-02T09:06:46.662Z,8.83
2018-11-02T09:09:15.066Z,9.23
2018-11-02T09:11:43.466Z,11.03
2018-11-02T09:14:12.366Z,9.67
2018-11-02T09:16:40.655Z,9.63
2018-11-02T09:19:09.541Z,9.57
2018-11-02T09:21:37.639Z,9.40
2018-11-02T09:24:06.163Z,9.30
2018-11-02T09:26:34.278Z,11.00
2018-11-02T09:29:02.436Z,9.73
2018-11-02T09:31:30.556Z,8.53
2018-11-02T09:33:59.752Z,9.27
2018-11-02T09:36:27.869Z,8.67
2018-11-02T09:38:56.651Z,10.67
2018-11-02T09:41:24.842Z,9.37
2018-11-02T09:43:53.262Z,9.33
2018-11-02T09:46:21.478Z,9.10
2018-11-02T09:48:49.967Z,9.00
2018-11-02T09:51:18.175Z,8.57
2018-11-02T09:53:46.282Z,9.87
2018-11-02T09:56:14.481Z,12.57
2018-11-02T09:58:43.254Z,9.63
2018-11-02T10:01:11.870Z,12.30
2018-11-02T10:03:40.532Z,13.13
2018-11-02T10:06:08.686Z,13.13
2018-11-02T10:08:37.341Z,11.00
2018-11-02T10:11:05.237Z,11.67
2018-11-02T10:13:33.316Z,12.07
2018-11-02T10:16:02.022Z,10.97
2018-11-02T10:18:30.847Z,10.60
2018-11-02T10:20:59.329Z,11.17
2018-11-02T10:23:28.098Z,10.23
2018-11-02T10:25:56.126Z,12.10
2018-11-02T10:28:24.772Z,9.30
2018-11-02T10:30:52.909Z,8.63
2018-11-02T10:33:21.048Z,8.20
2018-11-02T10:35:50.019Z,9.33
2018-11-02T10:38:18.110Z,7.90
2018-11-02T10:40:47.897Z,7.93
2018-11-02T10:43:17.646Z,8.53
2018-11-02T10:45:46.461Z,8.00
2018-11-02T10:48:14.810Z,8.13
2018-11-02T10:50:42.918Z,8.70
2018-11-02T10:53:11.042Z,8.00
2018-11-02T10:55:40.414Z,8.97
2018-11-02T10:58:09.565Z,7.23
2018-11-02T11:00:43.122Z,7.10
2018-11-02T11:03:12.054Z,7.80
2018-11-02T11:05:40.189Z,9.10
2018-11-02T11:08:08.321Z,9.30
2018-11-02T11:10:36.445Z,9.13
2018-11-02T11:13:05.596Z,8.17
2018-11-02T11:15:33.735Z,7.17
2018-11-02T11:18:01.910Z,7.23
2018-11-02T11:20:30.042Z,8.10
2018-11-02T11:22:58.393Z,6.77
2018-11-02T11:25:26.517Z,6.27
2018-11-02T11:27:55.001Z,5.80
2018-11-02T11:30:22.889Z,6.90
2018-11-02T11:32:51.745Z,5.80
2018-11-02T11:35:20.065Z,6.87
2018-11-02T11:37:48.198Z,7.47
2018-11-02T11:40:17.876Z,10.33
2018-11-02T11:42:45.787Z,7.17
2018-11-02T11:45:15.449Z,9.37
2018-11-02T11:47:44.358Z,5.47
2018-11-02T11:50:20.250Z,3.43
2018-11-02T11:52:49.249Z,4.47
2018-11-02T11:55:17.697Z,3.13
2018-11-02T11:57:46.138Z,4.03
2018-11-02T12:00:16.276Z,5.30
2018-11-02T12:02:45.181Z,1.90
2018-11-02T12:05:15.573Z,2.20
2018-11-02T12:07:43.813Z,1.97
2018-11-02T12:10:15.759Z,1.63
2018-11-02T12:12:44.056Z,1.67
2018-11-02T12:15:14.845Z,2.70
2018-11-02T12:17:43.453Z,3.50
2018-11-02T12:20:15.469Z,3.70
2018-11-02T12:22:44.257Z,2.93
2018-11-02T12:25:13.270Z,6.07
2018-11-02T12:27:41.602Z,2.40
2018-11-02T12:30:12.916Z,4.63
2018-11-02T12:32:40.939Z,7.43
2018-11-02T12:35:10.878Z,4.33
2018-11-02T12:37:39.793Z,2.50
2018-11-02T12:40:10.227Z,5.03
2018-11-02T12:42:39.163Z,2.67
2018-11-02T12:45:07.703Z,2.40
2018-11-02T12:47:35.853Z,3.70
2018-11-02T12:50:04.225Z,3.27
2018-11-02T12:52:32.329Z,2.50
2018-11-02T12:55:00.727Z,2.90
2018-11-02T12:57:29.744Z,3.67
2018-11-02T12:59:57.855Z,4.80
2018-11-02T13:02:25.766Z,2.43
2018-11-02T13:04:53.895Z,2.50
2018-11-02T13:07:22.273Z,3.93
2018-11-02T13:09:50.582Z,5.63
2018-11-02T13:12:18.713Z,4.50
2018-11-02T13:14:46.633Z,2.40
2018-11-02T13:17:14.881Z,6.47
2018-11-02T13:19:43.406Z,4.17
2018-11-02T13:22:11.817Z,5.27
2018-11-02T13:24:40.025Z,5.03
2018-11-02T13:27:08.917Z,3.27
2018-11-02T13:29:37.607Z,6.63
2018-11-02T13:32:05.854Z,8.37
2018-11-02T13:34:33.741Z,5.77
2018-11-02T13:37:02.335Z,7.07
2018-11-02T13:39:30.757Z,9.73
2018-11-02T13:41:59.358Z,5.27
2018-11-02T13:44:28.438Z,5.90
2018-11-02T13:46:56.805Z,7.93
2018-11-02T13:49:25.053Z,10.10
2018-11-02T13:51:53.432Z,6.10
2018-11-02T13:54:21.652Z,7.13
2018-11-02T13:56:49.870Z,6.93
2018-11-02T13:59:18.018Z,6.17
2018-11-02T14:01:46.132Z,5.23
2018-11-02T14:04:14.811Z,5.80
2018-11-02T14:06:42.966Z,5.20
2018-11-02T14:09:11.753Z,6.13
2018-11-02T14:11:40.004Z,4.43
2018-11-02T14:14:08.353Z,4.67
2018-11-02T14:16:36.970Z,3.63
2018-11-02T14:19:05.423Z,5.23
2018-11-02T14:21:33.646Z,5.63
2018-11-02T14:24:01.828Z,6.13
2018-11-02T14:26:30.045Z,12.63
2018-11-02T14:28:58.918Z,9.43
2018-11-02T14:31:27.455Z,6.07
2018-11-02T14:33:56.167Z,4.67
2018-11-02T14:36:24.779Z,4.93
2018-11-02T14:38:53.342Z,3.57
2018-11-02T14:41:21.569Z,9.43
2018-11-02T14:43:49.596Z,4.23
2018-11-02T14:46:17.778Z,5.33
2018-11-02T14:48:45.916Z,3.30
2018-11-02T14:51:14.056Z,2.77
2018-11-02T14:53:42.273Z,6.20
2018-11-02T14:56:11.144Z,9.60
2018-11-02T14:58:39.450Z,3.67
2018-11-02T15:01:07.580Z,6.33
2018-11-02T15:03:35.809Z,4.47
2018-11-02T15:06:04.792Z,3.63
2018-11-02T15:08:33.515Z,7.33
2018-11-02T15:11:01.745Z,4.37
2018-11-02T15:13:29.971Z,5.00
2018-11-02T15:15:58.758Z,3.90
2018-11-02T15:18:27.610Z,7.60
2018-11-02T15:20:55.761Z,7.37
2018-11-02T15:23:23.916Z,6.50
2018-11-02T15:25:52.123Z,5.40
2018-11-02T15:28:21.044Z,7.37
2018-11-02T15:30:48.979Z,7.80
2018-11-02T15:33:16.860Z,9.20
2018-11-02T15:35:45.011Z,7.50
2018-11-02T15:38:13.198Z,8.20
2018-11-02T15:40:41.850Z,4.90
2018-11-02T15:43:09.949Z,5.70
2018-11-02T15:45:38.725Z,9.90
2018-11-02T15:48:06.899Z,8.10
2018-11-02T15:50:35.034Z,6.23
2018-11-02T15:53:03.461Z,6.03
2018-11-02T15:55:31.777Z,5.03
2018-11-02T15:58:00.623Z,4.27
2018-11-02T16:00:28.818Z,6.80
2018-11-02T16:02:57.614Z,5.93
2018-11-02T16:05:26.341Z,6.40
2018-11-02T16:07:54.475Z,7.53
2018-11-02T16:10:23.277Z,6.20
2018-11-02T16:12:51.617Z,9.50
2018-11-02T16:15:20.405Z,7.83
2018-11-02T16:17:49.114Z,10.13
2018-11-02T16:20:17.034Z,8.90
2018-11-02T16:22:45.603Z,6.67
2018-11-02T16:25:14.046Z,5.90
2018-11-02T16:27:42.473Z,6.80
2018-11-02T16:30:11.266Z,6.30
2018-11-02T16:32:39.045Z,10.67
2018-11-02T16:35:07.309Z,6.53
2018-11-02T16:37:35.967Z,5.87
2018-11-02T16:40:05.778Z,5.07
2018-11-02T16:42:33.893Z,8.03
2018-11-02T16:45:02.006Z,5.00
2018-11-02T16:47:30.126Z,6.40
2018-11-02T16:49:58.747Z,15.33
2018-11-02T16:52:27.419Z,6.50
2018-11-02T16:54:55.376Z,7.53
2018-11-02T16:57:23.308Z,11.33
2018-11-02T16:59:52.388Z,11.27
2018-11-02T17:02:21.436Z,13.23
2018-11-02T17:04:49.387Z,7.90
2018-11-02T17:07:18.186Z,8.03
2018-11-02T17:09:46.599Z,8.63
2018-11-02T17:12:14.753Z,15.10
2018-11-02T17:14:43.724Z,13.67
2018-11-02T17:17:12.178Z,11.77
2018-11-02T17:19:40.309Z,13.83
2018-11-02T17:22:08.431Z,12.53
2018-11-02T17:24:36.558Z,12.57
2018-11-02T17:27:04.937Z,6.80
2018-11-02T17:29:33.082Z,10.47
2018-11-02T17:32:01.949Z,30.37
2018-11-02T17:34:30.578Z,17.30
2018-11-02T17:36:58.867Z,14.20
2018-11-02T17:39:27.282Z,16.90
2018-11-02T17:41:55.525Z,9.60
2018-11-02T17:44:23.669Z,11.37
2018-11-02T17:46:51.968Z,13.50
2018-11-02T17:49:20.421Z,20.60
2018-11-02T17:51:48.594Z,23.87
2018-11-02T17:54:16.885Z,18.23
2018-11-02T17:56:46.217Z,20.27
2018-11-02T17:59:14.412Z,13.97
2018-11-02T18:01:42.498Z,11.10
2018-11-02T18:04:11.132Z,10.57
2018-11-02T18:06:39.320Z,10.37
2018-11-02T18:09:09.363Z,11.73
2018-11-02T18:11:37.572Z,10.40
2018-11-02T18:14:06.522Z,11.07
2018-11-02T18:16:34.717Z,16.53
2018-11-02T18:19:02.854Z,17.17
2018-11-02T18:21:31.370Z,16.47
2018-11-02T18:23:59.405Z,23.03
2018-11-02T18:26:27.329Z,18.97
2018-11-02T18:28:55.423Z,19.03
2018-11-02T18:31:23.614Z,17.00
2018-11-02T18:33:52.722Z,16.20
2018-11-02T18:36:20.673Z,21.87
2018-11-02T18:38:48.847Z,25.87
2018-11-02T18:41:17.546Z,23.47
2018-11-02T18:43:45.726Z,24.37
2018-11-02T18:46:14.582Z,32.93
2018-11-02T18:48:43.575Z,37.83
2018-11-02T18:51:11.765Z,27.37
2018-11-02T18:53:39.985Z,25.10
2018-11-02T18:56:09.230Z,34.80
2018-11-02T18:58:37.350Z,24.47
2018-11-02T19:01:05.737Z,21.37
2018-11-02T19:03:33.901Z,16.20
2018-11-02T19:06:02.149Z,17.57
2018-11-02T19:08:30.851Z,16.47
2018-11-02T19:10:59.802Z,16.77
2018-11-02T19:13:28.089Z,18.23
2018-11-02T19:15:57.111Z,22.40
2018-11-02T19:18:25.474Z,16.37
2018-11-02T19:20:53.325Z,13.87
2018-11-02T19:23:21.249Z,17.03
2018-11-02T19:25:49.145Z,14.90
2018-11-02T19:28:17.413Z,17.50
2018-11-02T19:30:45.551Z,16.07
2018-11-02T19:33:13.686Z,14.27
2018-11-02T19:35:41.815Z,13.67
2018-11-02T19:38:09.843Z,14.73
2018-11-02T19:40:37.756Z,16.57
2018-11-02T19:43:05.892Z,14.13
2018-11-02T19:45:34.009Z,14.80
2018-11-02T19:48:03.316Z,12.10
2018-11-02T19:50:31.705Z,13.03
2018-11-02T19:52:59.799Z,11.43
2018-11-02T19:55:28.013Z,11.40
2018-11-02T19:57:56.760Z,11.77
2018-11-02T20:00:24.926Z,17.57
2018-11-02T20:02:53.078Z,16.00
2018-11-02T20:05:21.603Z,17.33
2018-11-02T20:07:49.754Z,17.30
2018-11-02T20:10:19.204Z,15.07
2018-11-02T20:12:47.909Z,17.20
2018-11-02T20:15:16.898Z,15.43
2018-11-02T20:17:44.873Z,16.20
2018-11-02T20:20:14.678Z,16.23
2018-11-02T20:22:42.809Z,22.57
2018-11-02T20:25:14.533Z,22.60
2018-11-02T20:27:43.578Z,16.83
2018-11-02T20:30:13.711Z,14.80
2018-11-02T20:32:42.731Z,14.03
2018-11-02T20:35:11.631Z,16.33
2018-11-02T20:37:40.185Z,18.33
2018-11-02T20:40:11.684Z,18.83
2018-11-02T20:42:39.623Z,15.47
2018-11-02T20:45:07.782Z,14.33
2018-11-02T20:47:41.666Z,14.33
2018-11-02T20:50:11.195Z,22.87
2018-11-02T20:52:39.649Z,34.97
2018-11-02T20:55:08.675Z,52.60
2018-11-02T20:57:38.542Z,19.97
2018-11-02T21:00:10.042Z,20.60
2018-11-02T21:02:38.291Z,18.13
2018-11-02T21:05:07.926Z,19.97
2018-11-02T21:07:36.068Z,18.43
2018-11-02T21:10:06.247Z,15.07
2018-11-02T21:12:34.500Z,16.40
2018-11-02T21:15:03.793Z,18.17
2018-11-02T21:17:32.977Z,13.43
2018-11-02T21:20:01.693Z,19.37
2018-11-02T21:22:30.582Z,21.97
2018-11-02T21:24:59.767Z,16.93
2018-11-02T21:27:28.351Z,16.80
2018-11-02T21:29:56.987Z,19.57
2018-11-02T21:32:25.235Z,15.53
2018-11-02T21:34:54.046Z,14.07
2018-11-02T21:37:22.174Z,15.50
2018-11-02T21:39:50.082Z,13.27
2018-11-02T21:42:18.214Z,18.30
2018-11-02T21:44:46.382Z,14.93
2018-11-02T21:47:14.484Z,15.03
2018-11-02T21:49:42.677Z,19.30
2018-11-02T21:52:11.402Z,13.00
2018-11-02T21:54:39.851Z,15.80
2018-11-02T21:57:08.674Z,12.13
2018-11-02T21:59:37.601Z,16.00
2018-11-02T22:02:05.984Z,14.90
2018-11-02T22:04:34.086Z,13.83
2018-11-02T22:07:02.391Z,14.00
2018-11-02T22:09:31.472Z,14.17
2018-11-02T22:12:00.473Z,14.67
2018-11-02T22:14:29.151Z,17.70
2018-11-02T22:16:57.822Z,17.20
2018-11-02T22:19:26.662Z,16.83
2018-11-02T22:21:55.095Z,19.03
2018-11-02T22:24:23.406Z,12.73
2018-11-02T22:26:52.180Z,14.47
2018-11-02T22:29:20.444Z,13.87
2018-11-02T22:31:48.635Z,11.93
2018-11-02T22:34:16.775Z,17.27
2018-11-02T22:36:44.965Z,14.90
2018-11-02T22:39:13.228Z,12.97
2018-11-02T22:41:42.445Z,14.33
2018-11-02T22:44:10.404Z,12.93
2018-11-02T22:46:38.544Z,11.47
2018-11-02T22:49:06.703Z,14.57
2018-11-02T22:51:34.838Z,12.33
2018-11-02T22:54:03.837Z,13.73
2018-11-02T22:56:32.620Z,14.30
2018-11-02T22:59:00.743Z,12.53
2018-11-02T23:01:30.421Z,12.77
2018-11-02T23:03:59.831Z,14.13
2018-11-02T23:06:29.033Z,16.73
2018-11-02T23:08:57.209Z,16.77
2018-11-02T23:11:25.177Z,14.13
2018-11-02T23:13:53.390Z,16.03
2018-11-02T23:16:21.810Z,16.70
2018-11-02T23:18:50.114Z,15.73
2018-11-02T23:21:18.576Z,17.13
2018-11-02T23:23:46.927Z,19.23
2018-11-02T23:26:15.829Z,16.13
2018-11-02T23:28:43.982Z,19.73
2018-11-02T23:31:12.101Z,14.27
2018-11-02T23:33:41.174Z,21.57
2018-11-02T23:36:09.706Z,16.33
2018-11-02T23:38:37.967Z,16.23
2018-11-02T23:41:06.350Z,15.57
2018-11-02T23:43:35.490Z,17.27
2018-11-02T23:46:04.491Z,14.27
2018-11-02T23:48:33.393Z,20.07
2018-11-02T23:51:01.534Z,18.47
2018-11-02T23:53:29.460Z,18.87
2018-11-02T23:55:57.834Z,19.17
2018-11-02T23:58:26.434Z,18.67
